createdAt,value
2023-04-24T00:01:59.308Z,0.70
2023-04-24T00:04:27.175Z,0.80
2023-04-24T00:06:58.225Z,0.77
2023-04-24T00:09:25.641Z,0.70
2023-04-24T00:11:53.091Z,0.70
2023-04-24T00:14:20.053Z,0.60
2023-04-24T00:16:47.115Z,0.70
2023-04-24T00:19:14.158Z,0.60
2023-04-24T00:21:42.591Z,0.63
2023-04-24T00:24:10.205Z,0.73
2023-04-24T00:26:37.161Z,0.63
2023-04-24T00:29:04.074Z,0.55
2023-04-24T00:31:31.031Z,0.57
2023-04-24T00:33:58.961Z,0.60
2023-04-24T00:36:26.049Z,0.50
2023-04-24T00:38:52.947Z,0.60
2023-04-24T00:41:20.086Z,0.60
2023-04-24T00:43:47.198Z,0.60
2023-04-24T00:46:15.314Z,0.40
2023-04-24T00:48:42.491Z,0.80
2023-04-24T00:51:09.659Z,0.63
2023-04-24T00:53:36.637Z,0.63
2023-04-24T00:56:04.104Z,0.50
2023-04-24T00:58:32.218Z,0.68
2023-04-24T01:01:02.116Z,0.73
2023-04-24T01:03:32.734Z,0.70
2023-04-24T01:06:00.289Z,0.70
2023-04-24T01:08:29.522Z,0.70
2023-04-24T01:10:58.346Z,0.55
2023-04-24T01:13:25.563Z,0.50
2023-04-24T01:15:52.707Z,0.70
2023-04-24T01:18:19.670Z,0.60
2023-04-24T01:20:47.807Z,0.63
2023-04-24T01:23:15.020Z,0.60
2023-04-24T01:25:42.204Z,0.65
2023-04-24T01:28:09.295Z,1.23
2023-04-24T01:30:36.412Z,0.60
2023-04-24T01:33:03.867Z,0.77
2023-04-24T01:35:30.803Z,0.60
2023-04-24T01:37:57.698Z,0.70
2023-04-24T01:40:24.674Z,0.70
2023-04-24T01:42:52.594Z,0.70
2023-04-24T01:45:19.501Z,0.65
2023-04-24T01:47:47.484Z,0.70
2023-04-24T01:50:14.996Z,0.75
2023-04-24T01:52:42.004Z,0.77
2023-04-24T01:55:09.696Z,0.73
2023-04-24T01:57:37.375Z,0.70
2023-04-24T02:00:05.827Z,0.70
2023-04-24T02:02:33.008Z,0.80
2023-04-24T02:05:00.190Z,0.70
2023-04-24T02:07:27.146Z,0.65
2023-04-24T02:09:54.063Z,0.70
2023-04-24T02:12:20.964Z,0.70
2023-04-24T02:14:47.872Z,0.80
2023-04-24T02:17:16.456Z,0.70
2023-04-24T02:19:43.730Z,0.70
2023-04-24T02:22:11.630Z,0.70
2023-04-24T02:24:39.864Z,0.73
2023-04-24T02:27:07.418Z,0.75
2023-04-24T02:29:34.458Z,0.70
2023-04-24T02:32:01.362Z,0.70
2023-04-24T02:34:28.326Z,0.60
2023-04-24T02:36:55.239Z,0.80
2023-04-24T02:39:22.297Z,0.95
2023-04-24T02:41:49.087Z,0.70
2023-04-24T02:44:16.082Z,0.90
2023-04-24T02:46:43.078Z,0.70
2023-04-24T02:49:10.012Z,1.00
2023-04-24T02:51:39.171Z,1.02
2023-04-24T02:54:06.110Z,1.30
2023-04-24T02:56:32.995Z,1.67
2023-04-24T02:58:59.780Z,2.08
2023-04-24T03:01:26.900Z,1.98
2023-04-24T03:03:53.988Z,2.00
2023-04-24T03:06:21.943Z,1.67
2023-04-24T03:08:48.867Z,1.70
2023-04-24T03:11:15.756Z,1.92
2023-04-24T03:13:42.638Z,1.83
2023-04-24T03:16:09.568Z,2.00
2023-04-24T03:18:36.492Z,2.17
2023-04-24T03:21:04.492Z,2.20
2023-04-24T03:23:31.466Z,2.25
2023-04-24T03:25:58.444Z,2.10
2023-04-24T03:28:26.184Z,2.13
2023-04-24T03:30:53.189Z,2.25
2023-04-24T03:33:20.174Z,2.60
2023-04-24T03:35:47.046Z,2.20
2023-04-24T03:38:13.915Z,2.90
2023-04-24T03:40:40.863Z,2.70
2023-04-24T03:43:07.876Z,2.70
2023-04-24T03:45:34.870Z,3.10
2023-04-24T03:48:01.794Z,3.53
2023-04-24T03:50:30.169Z,4.20
2023-04-24T03:52:57.071Z,4.37
2023-04-24T03:55:23.869Z,5.10
2023-04-24T03:57:50.807Z,4.23
2023-04-24T04:00:17.680Z,4.63
2023-04-24T04:02:44.645Z,5.67
2023-04-24T04:05:11.630Z,6.30
2023-04-24T04:07:38.710Z,5.70
2023-04-24T04:10:08.020Z,6.63
2023-04-24T04:12:35.001Z,6.03
2023-04-24T04:15:01.903Z,6.17
2023-04-24T04:17:28.877Z,5.87
2023-04-24T04:19:56.162Z,6.30
2023-04-24T04:22:23.080Z,5.97
2023-04-24T04:24:51.779Z,5.63
2023-04-24T04:27:19.569Z,5.40
2023-04-24T04:29:46.782Z,5.07
2023-04-24T04:32:13.804Z,6.73
2023-04-24T04:34:40.793Z,5.93
2023-04-24T04:37:07.766Z,6.10
2023-04-24T04:39:34.648Z,6.60
2023-04-24T04:42:01.589Z,5.97
2023-04-24T04:44:30.383Z,6.30
2023-04-24T04:46:57.983Z,6.13
2023-04-24T04:49:25.359Z,6.33
2023-04-24T04:51:52.277Z,6.10
2023-04-24T04:54:19.221Z,6.07
2023-04-24T04:56:46.168Z,6.20
2023-04-24T04:59:13.365Z,5.70
2023-04-24T05:01:40.464Z,5.77
2023-04-24T05:04:07.540Z,6.10
2023-04-24T05:06:34.892Z,5.93
2023-04-24T05:09:01.690Z,6.17
2023-04-24T05:11:28.546Z,6.40
2023-04-24T05:13:55.471Z,5.97
2023-04-24T05:16:22.586Z,5.60
2023-04-24T05:18:49.698Z,6.10
2023-04-24T05:21:16.601Z,5.47
2023-04-24T05:23:43.407Z,6.00
2023-04-24T05:26:10.473Z,6.17
2023-04-24T05:28:37.844Z,6.07
2023-04-24T05:31:05.510Z,5.13
2023-04-24T05:33:32.372Z,5.63
2023-04-24T05:35:59.304Z,5.20
2023-04-24T05:38:26.270Z,5.53
2023-04-24T05:40:53.157Z,6.03
2023-04-24T05:43:20.000Z,5.53
2023-04-24T05:45:46.960Z,5.80
2023-04-24T05:48:13.893Z,5.03
2023-04-24T05:50:41.099Z,5.57
2023-04-24T05:53:08.276Z,5.80
2023-04-24T05:55:35.385Z,4.73
2023-04-24T05:58:02.268Z,5.40
2023-04-24T06:00:29.758Z,5.50
2023-04-24T06:02:57.032Z,5.60
2023-04-24T06:05:24.104Z,5.33
2023-04-24T06:07:52.210Z,5.43
2023-04-24T06:10:19.149Z,5.37
2023-04-24T06:12:46.103Z,5.00
2023-04-24T06:17:58.693Z,5.00
2023-04-24T06:20:25.958Z,5.27
2023-04-24T06:22:52.928Z,4.93
2023-04-24T06:25:20.185Z,5.40
2023-04-24T06:27:47.412Z,5.30
2023-04-24T06:30:14.605Z,5.20
2023-04-24T06:32:41.633Z,5.50
2023-04-24T06:35:10.749Z,5.50
2023-04-24T06:37:37.684Z,5.30
2023-04-24T06:40:07.778Z,5.67
2023-04-24T06:42:36.074Z,5.50
2023-04-24T06:45:03.460Z,5.27
2023-04-24T06:50:15.398Z,5.07
2023-04-24T06:52:42.367Z,5.38
2023-04-24T06:55:09.626Z,5.93
2023-04-24T06:57:36.679Z,5.27
2023-04-24T07:02:51.254Z,5.72
2023-04-24T07:05:20.918Z,5.00
2023-04-24T07:07:49.990Z,5.72
2023-04-24T07:13:02.228Z,5.47
2023-04-24T07:15:29.208Z,5.70
2023-04-24T07:20:40.927Z,4.85
2023-04-24T07:23:07.893Z,6.07
2023-04-24T07:25:35.089Z,5.63
2023-04-24T07:28:02.091Z,5.78
2023-04-24T07:30:33.772Z,5.90
2023-04-24T07:33:00.863Z,6.17
2023-04-24T07:35:28.308Z,6.27
2023-04-24T07:37:55.356Z,6.45
2023-04-24T07:40:23.323Z,6.20
2023-04-24T07:42:50.316Z,5.20
2023-04-24T07:45:17.395Z,6.35
2023-04-24T07:47:46.549Z,6.17
2023-04-24T07:50:14.226Z,6.07
2023-04-24T07:52:41.268Z,5.90
2023-04-24T07:55:08.487Z,5.77
2023-04-24T07:57:36.211Z,5.43
2023-04-24T08:00:06.722Z,5.50
2023-04-24T08:05:19.057Z,5.57
2023-04-24T08:07:50.362Z,4.33
2023-04-24T08:10:17.337Z,4.63
2023-04-24T08:12:44.438Z,4.53
2023-04-24T08:15:11.779Z,4.53
2023-04-24T08:20:23.110Z,4.47
2023-04-24T08:22:50.067Z,4.40
2023-04-24T08:25:17.224Z,4.17
2023-04-24T08:27:44.649Z,3.57
2023-04-24T08:30:12.115Z,3.60
2023-04-24T08:32:39.071Z,4.00
2023-04-24T08:37:51.950Z,2.70
2023-04-24T08:40:19.576Z,2.17
2023-04-24T08:42:46.567Z,2.70
2023-04-24T08:48:00.280Z,1.40
2023-04-24T08:50:27.300Z,1.43
2023-04-24T08:55:40.227Z,0.80
2023-04-24T08:58:07.801Z,0.87
2023-04-24T09:00:35.424Z,0.60
2023-04-24T09:03:04.284Z,0.80
2023-04-24T09:05:31.696Z,0.80
2023-04-24T09:08:00.517Z,0.70
2023-04-24T09:10:28.496Z,0.60
2023-04-24T09:12:56.324Z,0.80
2023-04-24T09:15:23.474Z,0.83
2023-04-24T09:17:51.232Z,0.70
2023-04-24T09:20:18.306Z,0.73
2023-04-24T09:22:46.591Z,0.80
2023-04-24T09:25:13.832Z,0.50
2023-04-24T09:30:31.075Z,0.40
2023-04-24T09:36:01.494Z,0.40
2023-04-24T09:38:37.876Z,0.33
2023-04-24T09:41:08.553Z,0.50
2023-04-24T09:43:36.800Z,0.60
2023-04-24T09:51:40.779Z,0.90
2023-04-24T09:54:22.474Z,0.87
2023-04-24T09:56:51.816Z,0.80
2023-04-24T09:59:20.965Z,1.10
2023-04-24T10:01:50.236Z,0.87
2023-04-24T10:04:28.757Z,1.10
2023-04-24T10:06:57.854Z,1.00
2023-04-24T10:09:27.942Z,1.30
2023-04-24T10:14:42.450Z,1.30
2023-04-24T10:17:12.714Z,1.47
2023-04-24T10:22:28.181Z,1.57
2023-04-24T10:24:55.447Z,1.60
2023-04-24T10:27:24.029Z,1.30
2023-04-24T10:32:39.271Z,1.30
2023-04-24T10:35:09.774Z,1.43
2023-04-24T10:37:41.943Z,1.73
2023-04-24T10:40:12.600Z,1.37
2023-04-24T10:45:28.451Z,1.20
2023-04-24T10:48:04.374Z,1.67
2023-04-24T10:56:23.180Z,1.43
2023-04-24T10:58:54.792Z,1.70
2023-04-24T11:01:33.819Z,2.20
2023-04-24T11:06:48.557Z,2.17
2023-04-24T11:09:17.428Z,2.07
2023-04-24T11:17:44.092Z,3.20
2023-04-24T11:20:27.436Z,3.50
2023-04-24T11:22:56.606Z,3.60
2023-04-24T11:25:24.055Z,4.13
2023-04-24T11:30:36.372Z,5.17
2023-04-24T11:35:52.845Z,4.33
2023-04-24T11:38:24.679Z,4.80
2023-04-24T11:40:54.326Z,5.07
2023-04-24T11:43:22.456Z,5.50
2023-04-24T11:45:50.181Z,6.23
2023-04-24T11:48:23.746Z,5.07
2023-04-24T11:50:51.560Z,5.37
2023-04-24T11:53:22.584Z,5.17
2023-04-24T11:55:49.554Z,4.40
2023-04-24T11:58:21.342Z,3.37
2023-04-24T12:00:59.169Z,4.00
2023-04-24T12:03:26.894Z,3.57
2023-04-24T12:06:05.532Z,3.57
2023-04-24T12:11:19.070Z,4.00
2023-04-24T12:13:46.523Z,3.70
2023-04-24T12:16:14.016Z,3.90
2023-04-24T12:21:32.906Z,3.87
2023-04-24T12:23:59.859Z,4.87
2023-04-24T12:26:28.302Z,3.73
2023-04-24T12:28:55.351Z,4.00
2023-04-24T12:31:23.437Z,3.77
2023-04-24T12:33:50.578Z,3.38
2023-04-24T12:36:17.450Z,3.92
2023-04-24T12:41:32.313Z,3.67
2023-04-24T12:43:59.181Z,3.70
2023-04-24T12:49:11.187Z,3.88
2023-04-24T12:51:38.099Z,4.15
2023-04-24T12:56:49.647Z,5.28
2023-04-24T13:02:01.120Z,4.63
2023-04-24T13:04:28.086Z,4.70
2023-04-24T13:06:55.011Z,4.80
2023-04-24T13:09:21.892Z,5.30
2023-04-24T13:11:48.792Z,5.03
2023-04-24T13:14:15.637Z,6.40
2023-04-24T13:16:42.537Z,5.97
2023-04-24T13:19:09.523Z,5.45
2023-04-24T13:21:36.345Z,6.05
2023-04-24T13:29:34.098Z,6.22
2023-04-24T13:32:01.496Z,6.50
2023-04-24T13:39:57.591Z,6.10
2023-04-24T13:42:24.534Z,5.85
2023-04-24T13:47:37.078Z,4.97
2023-04-24T13:50:04.469Z,6.03
2023-04-24T13:52:31.388Z,5.25
2023-04-24T13:54:58.417Z,6.15
2023-04-24T13:57:25.368Z,5.35
2023-04-24T13:59:52.318Z,5.60
2023-04-24T14:02:19.207Z,5.25
2023-04-24T14:04:46.339Z,5.13
2023-04-24T14:07:13.403Z,5.72
2023-04-24T14:09:40.348Z,4.60
2023-04-24T14:12:08.892Z,5.20
2023-04-24T14:14:36.179Z,4.90
2023-04-24T14:17:03.107Z,5.72
2023-04-24T14:19:30.062Z,4.97
2023-04-24T14:21:59.365Z,6.35
2023-04-24T14:24:26.441Z,4.28
2023-04-24T14:26:53.396Z,5.00
2023-04-24T14:29:20.655Z,5.78
2023-04-24T14:31:47.609Z,5.90
2023-04-24T14:34:15.404Z,5.38
2023-04-24T14:36:43.177Z,4.63
2023-04-24T14:39:11.825Z,6.18
2023-04-24T14:41:40.244Z,5.40
2023-04-24T14:44:07.247Z,5.07
2023-04-24T14:46:34.351Z,4.93
2023-04-24T14:49:01.305Z,5.15
2023-04-24T14:51:28.246Z,4.93
2023-04-24T14:53:55.465Z,4.80
2023-04-24T14:56:22.370Z,5.35
2023-04-24T14:58:49.350Z,5.22
2023-04-24T15:01:17.821Z,5.13
2023-04-24T15:03:45.887Z,5.57
2023-04-24T15:06:13.208Z,4.53
2023-04-24T15:08:40.131Z,4.60
2023-04-24T15:11:07.157Z,4.00
2023-04-24T15:13:34.118Z,4.22
2023-04-24T15:16:01.403Z,4.40
2023-04-24T15:18:29.816Z,4.30
2023-04-24T15:20:57.284Z,5.40
2023-04-24T15:23:24.154Z,5.32
2023-04-24T15:25:51.105Z,4.55
2023-04-24T15:28:18.927Z,4.65
2023-04-24T15:30:46.113Z,5.22
2023-04-24T15:33:13.201Z,4.82
2023-04-24T15:35:41.330Z,5.30
2023-04-24T15:38:08.834Z,5.13
2023-04-24T15:40:35.821Z,4.72
2023-04-24T15:43:02.732Z,4.90
2023-04-24T15:45:29.668Z,5.75
2023-04-24T15:47:56.808Z,4.63
2023-04-24T15:50:24.664Z,4.63
2023-04-24T15:52:51.570Z,4.68
2023-04-24T15:55:18.563Z,4.93
2023-04-24T15:57:45.514Z,5.25
2023-04-24T16:00:13.773Z,4.80
2023-04-24T16:02:40.976Z,4.70
2023-04-24T16:05:08.830Z,5.50
2023-04-24T16:07:37.706Z,4.95
2023-04-24T16:10:05.038Z,4.68
2023-04-24T16:12:32.002Z,3.90
2023-04-24T16:14:59.353Z,4.70
2023-04-24T16:17:26.331Z,4.20
2023-04-24T16:19:53.417Z,3.92
2023-04-24T16:22:20.308Z,3.70
2023-04-24T16:24:48.066Z,3.90
2023-04-24T16:27:15.848Z,3.20
2023-04-24T16:29:42.991Z,3.63
2023-04-24T16:32:11.063Z,3.70
2023-04-24T16:34:38.231Z,4.30
2023-04-24T16:37:06.612Z,3.95
2023-04-24T16:39:33.784Z,3.67
2023-04-24T16:42:01.971Z,4.05
2023-04-24T16:44:29.029Z,3.90
2023-04-24T16:46:56.121Z,3.70
2023-04-24T16:49:30.861Z,3.80
2023-04-24T16:51:57.743Z,4.03
2023-04-24T16:54:25.081Z,4.28
2023-04-24T16:56:53.930Z,4.00
2023-04-24T16:59:21.280Z,4.32
2023-04-24T17:01:48.387Z,4.82
2023-04-24T17:04:15.736Z,4.28
2023-04-24T17:06:42.779Z,3.95
2023-04-24T17:09:09.660Z,4.40
2023-04-24T17:11:36.581Z,4.45
2023-04-24T17:14:04.628Z,4.40
2023-04-24T17:16:31.685Z,4.43
2023-04-24T17:18:58.780Z,4.07
2023-04-24T17:21:26.651Z,4.40
2023-04-24T17:23:54.438Z,4.35
2023-04-24T17:26:21.376Z,4.43
2023-04-24T17:28:48.895Z,4.18
2023-04-24T17:31:16.063Z,4.63
2023-04-24T17:33:43.037Z,4.57
2023-04-24T17:36:10.795Z,4.00
2023-04-24T17:38:38.210Z,4.00
2023-04-24T17:41:05.730Z,4.07
2023-04-24T17:43:32.689Z,3.95
2023-04-24T17:46:00.130Z,4.35
2023-04-24T17:48:27.386Z,4.68
2023-04-24T17:50:54.583Z,4.40
2023-04-24T17:53:22.772Z,5.13
2023-04-24T17:55:49.801Z,4.18
2023-04-24T17:58:18.943Z,4.60
2023-04-24T18:00:46.418Z,4.15
2023-04-24T18:03:13.438Z,4.80
2023-04-24T18:05:40.540Z,4.63
2023-04-24T18:08:07.950Z,4.50
2023-04-24T18:10:37.981Z,4.57
2023-04-24T18:13:05.719Z,4.80
2023-04-24T18:15:32.920Z,4.20
2023-04-24T18:18:00.034Z,4.37
2023-04-24T18:20:27.272Z,4.30
2023-04-24T18:22:54.684Z,4.22
2023-04-24T18:25:26.730Z,4.03
2023-04-24T18:27:55.739Z,3.93
2023-04-24T18:30:24.448Z,3.80
2023-04-24T18:32:53.555Z,3.90
2023-04-24T18:35:22.139Z,3.75
2023-04-24T18:37:50.446Z,3.90
2023-04-24T18:40:17.967Z,3.73
2023-04-24T18:42:45.237Z,3.63
2023-04-24T18:45:15.178Z,3.70
2023-04-24T18:47:43.814Z,3.07
2023-04-24T18:50:11.826Z,3.57
2023-04-24T18:52:39.251Z,4.67
2023-04-24T18:55:07.084Z,4.73
2023-04-24T18:57:34.303Z,4.97
2023-04-24T19:00:01.241Z,5.73
2023-04-24T19:02:28.360Z,5.43
2023-04-24T19:04:55.686Z,4.43
2023-04-24T19:07:22.716Z,7.73
2023-04-24T19:09:49.645Z,10.40
2023-04-24T19:12:16.661Z,5.23
2023-04-24T19:14:43.661Z,5.87
2023-04-24T19:17:13.944Z,3.20
2023-04-24T19:19:40.881Z,3.10
2023-04-24T19:22:07.918Z,3.10
2023-04-24T19:24:34.779Z,2.97
2023-04-24T19:27:02.263Z,3.00
2023-04-24T19:29:29.216Z,2.73
2023-04-24T19:31:57.879Z,3.00
2023-04-24T19:34:26.184Z,3.37
2023-04-24T19:36:53.393Z,3.50
2023-04-24T19:39:20.526Z,3.00
2023-04-24T19:41:47.586Z,3.50
2023-04-24T19:44:15.680Z,6.13
2023-04-24T19:46:43.379Z,9.93
2023-04-24T19:49:10.579Z,10.10
2023-04-24T19:51:38.625Z,4.83
2023-04-24T19:54:06.387Z,4.67
2023-04-24T19:56:36.775Z,4.50
2023-04-24T19:59:04.119Z,3.80
2023-04-24T20:01:32.407Z,4.20
2023-04-24T20:03:59.720Z,4.87
2023-04-24T20:06:26.745Z,5.67
2023-04-24T20:08:53.631Z,4.43
2023-04-24T20:11:20.530Z,3.97
2023-04-24T20:13:47.361Z,3.30
2023-04-24T20:16:14.415Z,3.80
2023-04-24T20:18:41.702Z,3.37
2023-04-24T20:21:09.525Z,3.50
2023-04-24T20:23:36.539Z,3.97
2023-04-24T20:26:04.842Z,8.00
2023-04-24T20:28:31.872Z,4.77
2023-04-24T20:30:59.607Z,3.73
2023-04-24T20:33:27.996Z,3.53
2023-04-24T20:35:55.627Z,3.33
2023-04-24T20:38:24.362Z,3.40
2023-04-24T20:40:57.123Z,4.27
2023-04-24T20:43:29.545Z,4.87
2023-04-24T20:46:00.163Z,4.90
2023-04-24T20:48:27.217Z,5.13
2023-04-24T20:50:54.693Z,5.30
2023-04-24T20:53:21.720Z,5.87
2023-04-24T20:55:49.065Z,5.83
2023-04-24T20:58:18.614Z,3.73
2023-04-24T21:00:45.687Z,3.23
2023-04-24T21:03:12.658Z,3.43
2023-04-24T21:05:39.734Z,3.77
2023-04-24T21:08:06.681Z,4.20
2023-04-24T21:10:33.668Z,4.80
2023-04-24T21:13:01.178Z,4.83
2023-04-24T21:15:28.449Z,4.83
2023-04-24T21:17:55.572Z,3.20
2023-04-24T21:20:22.594Z,3.13
2023-04-24T21:22:49.474Z,4.43
2023-04-24T21:25:16.461Z,3.70
2023-04-24T21:27:43.614Z,4.47
2023-04-24T21:30:11.533Z,4.93
2023-04-24T21:32:40.581Z,4.40
2023-04-24T21:35:08.103Z,3.00
2023-04-24T21:37:36.306Z,3.30
2023-04-24T21:40:06.372Z,3.20
2023-04-24T21:42:33.328Z,3.10
2023-04-24T21:45:00.292Z,3.67
2023-04-24T21:47:27.243Z,3.30
2023-04-24T21:49:54.179Z,3.23
2023-04-24T21:52:21.141Z,3.53
2023-04-24T21:54:48.044Z,4.10
2023-04-24T21:57:15.314Z,3.50
2023-04-24T21:59:42.892Z,3.73
2023-04-24T22:02:10.172Z,4.97
2023-04-24T22:04:37.320Z,5.80
2023-04-24T22:07:04.612Z,5.80
2023-04-24T22:09:31.491Z,5.97
2023-04-24T22:11:58.333Z,4.83
2023-04-24T22:14:25.426Z,5.30
2023-04-24T22:16:52.285Z,5.13
2023-04-24T22:19:19.209Z,5.13
2023-04-24T22:21:46.425Z,5.10
2023-04-24T22:24:13.426Z,5.57
2023-04-24T22:26:40.594Z,6.03
2023-04-24T22:29:07.448Z,5.80
2023-04-24T22:31:34.888Z,5.93
2023-04-24T22:34:01.988Z,6.00
2023-04-24T22:36:28.861Z,4.33
2023-04-24T22:38:55.800Z,3.73
2023-04-24T22:41:23.328Z,3.90
2023-04-24T22:43:51.077Z,3.97
2023-04-24T22:46:18.271Z,4.40
2023-04-24T22:48:45.895Z,3.43
2023-04-24T22:51:12.787Z,4.23
2023-04-24T22:53:39.632Z,4.40
2023-04-24T22:56:07.142Z,4.13
2023-04-24T22:58:34.091Z,4.30
2023-04-24T23:01:01.125Z,3.63
2023-04-24T23:03:28.189Z,4.10
2023-04-24T23:05:55.122Z,4.03
2023-04-24T23:08:22.001Z,4.57
2023-04-24T23:10:48.919Z,4.00
2023-04-24T23:13:16.285Z,3.87
2023-04-24T23:15:43.391Z,4.10
2023-04-24T23:18:11.562Z,4.57
2023-04-24T23:20:38.946Z,3.97
2023-04-24T23:23:06.030Z,4.10
2023-04-24T23:25:33.176Z,4.20
2023-04-24T23:28:00.044Z,4.43
2023-04-24T23:30:27.280Z,4.53
2023-04-24T23:32:54.227Z,3.90
2023-04-24T23:35:21.276Z,5.10
2023-04-24T23:37:48.304Z,4.77
2023-04-24T23:40:15.307Z,4.60
2023-04-24T23:42:42.212Z,4.27
2023-04-24T23:45:10.871Z,4.70
2023-04-24T23:47:38.346Z,5.00
2023-04-24T23:50:06.106Z,4.43
2023-04-24T23:52:35.307Z,4.37
2023-04-24T23:55:05.008Z,4.20
2023-04-24T23:57:32.203Z,5.00
2023-04-24T23:59:59.120Z,4.67
